sensor_id;sensor_type;location;lat;lon;timestamp;pressure;altitude;pressure_sealevel;temperature;humidity
33155;BME280;19511;42.682;23.332;2023-05-09T00:01:11;95463.38;;;11.83;100.00
33155;BME280;19511;42.682;23.332;2023-05-09T00:03:41;95438.94;;;11.70;100.00
33155;BME280;19511;42.682;23.332;2023-05-09T00:06:07;95442.75;;;11.87;100.00
33155;BME280;19511;42.682;23.332;2023-05-09T00:08:33;95458.13;;;11.92;100.00
33155;BME280;19511;42.682;23.332;2023-05-09T00:11:01;95462.50;;;11.93;100.00
33155;BME280;19511;42.682;23.332;2023-05-09T00:13:27;95382.63;;;11.42;100.00
33155;BME280;19511;42.682;23.332;2023-05-09T00:15:52;95444.28;;;11.92;100.00
33155;BME280;19511;42.682;23.332;2023-05-09T00:18:20;95449.69;;;12.10;100.00
33155;BME280;19511;42.682;23.332;2023-05-09T00:20:49;95452.91;;;12.05;100.00
33155;BME280;19511;42.682;23.332;2023-05-09T00:23:15;95407.31;;;11.68;100.00
33155;BME280;19511;42.682;23.332;2023-05-09T00:25:41;95356.63;;;11.33;100.00
33155;BME280;19511;42.682;23.332;2023-05-09T00:28:10;95445.88;;;11.89;100.00
33155;BME280;19511;42.682;23.332;2023-05-09T00:30:38;95422.28;;;11.74;100.00
33155;BME280;19511;42.682;23.332;2023-05-09T00:33:05;95347.16;;;11.30;100.00
33155;BME280;19511;42.682;23.332;2023-05-09T00:35:36;95435.59;;;11.90;100.00
33155;BME280;19511;42.682;23.332;2023-05-09T00:38:02;95430.97;;;11.80;100.00
33155;BME280;19511;42.682;23.332;2023-05-09T00:40:31;95443.97;;;11.83;100.00
33155;BME280;19511;42.682;23.332;2023-05-09T00:42:58;95336.56;;;11.18;100.00
33155;BME280;19511;42.682;23.332;2023-05-09T00:45:24;95405.00;;;11.59;100.00
33155;BME280;19511;42.682;23.332;2023-05-09T00:47:50;95438.91;;;11.74;100.00
33155;BME280;19511;42.682;23.332;2023-05-09T00:50:15;95444.00;;;11.79;100.00
33155;BME280;19511;42.682;23.332;2023-05-09T00:52:41;95438.88;;;11.77;100.00
33155;BME280;19511;42.682;23.332;2023-05-09T00:55:07;95421.19;;;11.64;100.00
33155;BME280;19511;42.682;23.332;2023-05-09T00:57:33;95437.69;;;11.79;100.00
33155;BME280;19511;42.682;23.332;2023-05-09T00:59:59;95427.50;;;11.68;100.00
33155;BME280;19511;42.682;23.332;2023-05-09T01:02:25;95348.41;;;11.18;100.00
33155;BME280;19511;42.682;23.332;2023-05-09T01:04:51;95427.50;;;11.68;100.00
33155;BME280;19511;42.682;23.332;2023-05-09T01:10:08;95409.81;;;11.55;100.00
33155;BME280;19511;42.682;23.332;2023-05-09T01:12:48;95437.38;;;11.69;100.00
33155;BME280;19511;42.682;23.332;2023-05-09T01:17:58;95437.00;;;11.67;100.00
33155;BME280;19511;42.682;23.332;2023-05-09T01:20:38;95341.41;;;11.06;100.00
33155;BME280;19511;42.682;23.332;2023-05-09T01:26:24;95423.91;;;11.71;100.00
33155;BME280;19511;42.682;23.332;2023-05-09T01:31:54;95429.22;;;11.93;100.00
33155;BME280;19511;42.682;23.332;2023-05-09T01:34:21;95418.91;;;11.97;100.00
33155;BME280;19511;42.682;23.332;2023-05-09T01:36:50;95427.56;;;12.03;100.00
33155;BME280;19511;42.682;23.332;2023-05-09T01:39:27;95433.09;;;12.06;100.00
33155;BME280;19511;42.682;23.332;2023-05-09T01:41:55;95442.13;;;12.11;100.00
33155;BME280;19511;42.682;23.332;2023-05-09T01:44:22;95431.78;;;12.15;100.00
33155;BME280;19511;42.682;23.332;2023-05-09T01:46:52;95446.38;;;12.19;100.00
33155;BME280;19511;42.682;23.332;2023-05-09T01:49:19;95437.72;;;12.17;100.00
33155;BME280;19511;42.682;23.332;2023-05-09T01:51:46;95439.97;;;12.29;100.00
33155;BME280;19511;42.682;23.332;2023-05-09T01:54:13;95417.00;;;12.25;100.00
33155;BME280;19511;42.682;23.332;2023-05-09T01:56:41;95444.13;;;12.45;100.00
33155;BME280;19511;42.682;23.332;2023-05-09T01:59:07;95441.03;;;12.35;100.00
33155;BME280;19511;42.682;23.332;2023-05-09T02:01:35;95441.44;;;12.37;100.00
33155;BME280;19511;42.682;23.332;2023-05-09T02:04:01;95437.47;;;12.38;100.00
33155;BME280;19511;42.682;23.332;2023-05-09T02:06:28;95428.09;;;12.25;100.00
33155;BME280;19511;42.682;23.332;2023-05-09T02:08:54;95431.25;;;12.27;100.00
33155;BME280;19511;42.682;23.332;2023-05-09T02:11:20;95420.25;;;12.20;100.00
33155;BME280;19511;42.682;23.332;2023-05-09T02:13:50;95438.91;;;12.16;100.00
33155;BME280;19511;42.682;23.332;2023-05-09T02:16:15;95443.41;;;12.02;100.00
33155;BME280;19511;42.682;23.332;2023-05-09T02:18:41;95437.53;;;11.97;100.00
33155;BME280;19511;42.682;23.332;2023-05-09T02:21:11;95417.09;;;11.80;100.00
33155;BME280;19511;42.682;23.332;2023-05-09T02:23:36;95415.97;;;11.73;100.00
33155;BME280;19511;42.682;23.332;2023-05-09T02:26:02;95441.25;;;11.79;100.00
33155;BME280;19511;42.682;23.332;2023-05-09T02:28:28;95434.94;;;11.79;100.00
33155;BME280;19511;42.682;23.332;2023-05-09T02:30:56;95439.31;;;11.76;100.00
33155;BME280;19511;42.682;23.332;2023-05-09T02:33:28;95427.50;;;11.68;100.00
33155;BME280;19511;42.682;23.332;2023-05-09T02:35:59;95424.66;;;11.75;100.00
33155;BME280;19511;42.682;23.332;2023-05-09T02:38:25;95443.88;;;11.93;100.00
33155;BME280;19511;42.682;23.332;2023-05-09T02:40:52;95438.69;;;11.99;100.00
33155;BME280;19511;42.682;23.332;2023-05-09T02:43:17;95436.22;;;12.08;100.00
33155;BME280;19511;42.682;23.332;2023-05-09T02:45:42;95438.69;;;11.99;100.00
33155;BME280;19511;42.682;23.332;2023-05-09T02:48:08;95423.81;;;11.82;100.00
33155;BME280;19511;42.682;23.332;2023-05-09T02:50:35;95424.19;;;11.81;100.00
33155;BME280;19511;42.682;23.332;2023-05-09T02:53:02;95423.50;;;11.69;100.00
33155;BME280;19511;42.682;23.332;2023-05-09T02:55:28;95438.91;;;11.74;100.00
33155;BME280;19511;42.682;23.332;2023-05-09T02:57:57;95428.75;;;11.60;100.00
33155;BME280;19511;42.682;23.332;2023-05-09T03:00:22;95437.03;;;11.64;100.00
33155;BME280;19511;42.682;23.332;2023-05-09T03:02:50;95415.03;;;11.46;100.00
33155;BME280;19511;42.682;23.332;2023-05-09T03:05:16;95429.66;;;11.46;100.00
33155;BME280;19511;42.682;23.332;2023-05-09T03:07:42;95358.94;;;10.89;100.00
33155;BME280;19511;42.682;23.332;2023-05-09T03:10:09;95359.00;;;10.82;100.00
33155;BME280;19511;42.682;23.332;2023-05-09T03:12:36;95438.91;;;11.28;100.00
33155;BME280;19511;42.682;23.332;2023-05-09T03:15:06;95463.75;;;11.43;100.00
33155;BME280;19511;42.682;23.332;2023-05-09T03:17:34;95470.75;;;11.55;100.00
33155;BME280;19511;42.682;23.332;2023-05-09T03:20:00;95472.22;;;11.67;100.00
33155;BME280;19511;42.682;23.332;2023-05-09T03:22:30;95471.91;;;11.61;100.00
33155;BME280;19511;42.682;23.332;2023-05-09T03:24:59;95477.84;;;11.59;100.00
33155;BME280;19511;42.682;23.332;2023-05-09T03:27:24;95480.63;;;11.59;100.00
33155;BME280;19511;42.682;23.332;2023-05-09T03:29:50;95489.72;;;11.60;100.00
33155;BME280;19511;42.682;23.332;2023-05-09T03:32:23;95491.25;;;11.65;100.00
33155;BME280;19511;42.682;23.332;2023-05-09T03:34:52;95481.75;;;11.66;100.00
33155;BME280;19511;42.682;23.332;2023-05-09T03:37:25;95474.69;;;11.57;100.00
33155;BME280;19511;42.682;23.332;2023-05-09T03:39:54;95488.81;;;11.70;100.00
33155;BME280;19511;42.682;23.332;2023-05-09T03:42:19;95485.56;;;11.83;100.00
33155;BME280;19511;42.682;23.332;2023-05-09T03:44:45;95491.81;;;11.90;100.00
33155;BME280;19511;42.682;23.332;2023-05-09T03:47:11;95498.91;;;11.99;100.00
33155;BME280;19511;42.682;23.332;2023-05-09T03:49:37;95418.88;;;11.59;100.00
33155;BME280;19511;42.682;23.332;2023-05-09T03:52:02;95491.63;;;12.12;100.00
33155;BME280;19511;42.682;23.332;2023-05-09T03:54:30;95490.91;;;12.04;100.00
33155;BME280;19511;42.682;23.332;2023-05-09T03:56:56;95496.84;;;12.06;100.00
33155;BME280;19511;42.682;23.332;2023-05-09T03:59:24;95502.41;;;12.06;100.00
33155;BME280;19511;42.682;23.332;2023-05-09T04:01:50;95502.66;;;12.19;100.00
33155;BME280;19511;42.682;23.332;2023-05-09T04:04:19;95391.00;;;11.35;100.00
33155;BME280;19511;42.682;23.332;2023-05-09T04:06:45;95492.56;;;11.98;100.00
33155;BME280;19511;42.682;23.332;2023-05-09T04:09:10;95480.69;;;11.94;100.00
33155;BME280;19511;42.682;23.332;2023-05-09T04:11:36;95492.50;;;12.05;100.00
33155;BME280;19511;42.682;23.332;2023-05-09T04:14:01;95400.38;;;11.49;100.00
33155;BME280;19511;42.682;23.332;2023-05-09T04:16:31;95487.69;;;12.09;100.00
33155;BME280;19511;42.682;23.332;2023-05-09T04:18:56;95486.13;;;12.08;100.00
33155;BME280;19511;42.682;23.332;2023-05-09T04:21:21;95496.31;;;12.19;100.00
33155;BME280;19511;42.682;23.332;2023-05-09T04:23:47;95481.19;;;12.27;100.00
33155;BME280;19511;42.682;23.332;2023-05-09T04:26:12;95503.50;;;12.51;100.00
33155;BME280;19511;42.682;23.332;2023-05-09T04:28:38;95504.16;;;12.62;100.00
33155;BME280;19511;42.682;23.332;2023-05-09T04:31:04;95487.09;;;12.64;100.00
33155;BME280;19511;42.682;23.332;2023-05-09T04:33:30;95495.63;;;12.80;100.00
33155;BME280;19511;42.682;23.332;2023-05-09T04:35:56;95496.53;;;12.70;100.00
33155;BME280;19511;42.682;23.332;2023-05-09T04:38:22;95491.00;;;12.70;100.00
33155;BME280;19511;42.682;23.332;2023-05-09T04:40:47;95501.66;;;12.71;100.00
33155;BME280;19511;42.682;23.332;2023-05-09T04:43:13;95433.44;;;12.08;100.00
33155;BME280;19511;42.682;23.332;2023-05-09T04:45:38;95397.47;;;12.05;100.00
33155;BME280;19511;42.682;23.332;2023-05-09T04:48:04;95497.22;;;12.78;100.00
33155;BME280;19511;42.682;23.332;2023-05-09T04:50:33;95502.06;;;12.73;100.00
33155;BME280;19511;42.682;23.332;2023-05-09T04:53:02;95509.03;;;12.85;100.00
33155;BME280;19511;42.682;23.332;2023-05-09T04:55:28;95385.56;;;12.04;100.00
33155;BME280;19511;42.682;23.332;2023-05-09T04:57:54;95502.75;;;12.81;100.00
33155;BME280;19511;42.682;23.332;2023-05-09T05:00:19;95503.44;;;12.89;100.00
33155;BME280;19511;42.682;23.332;2023-05-09T05:02:45;95505.13;;;12.79;100.00
33155;BME280;19511;42.682;23.332;2023-05-09T05:05:10;95502.59;;;12.92;100.00
33155;BME280;19511;42.682;23.332;2023-05-09T05:07:36;95483.63;;;12.87;100.00
33155;BME280;19511;42.682;23.332;2023-05-09T05:10:04;95496.84;;;13.06;100.00
33155;BME280;19511;42.682;23.332;2023-05-09T05:12:30;95481.22;;;12.89;100.00
33155;BME280;19511;42.682;23.332;2023-05-09T05:14:56;95499.63;;;13.06;100.00
33155;BME280;19511;42.682;23.332;2023-05-09T05:17:21;95498.31;;;13.15;100.00
33155;BME280;19511;42.682;23.332;2023-05-09T05:19:48;95495.88;;;13.20;100.00
33155;BME280;19511;42.682;23.332;2023-05-09T05:22:16;95404.13;;;12.42;100.00
33155;BME280;19511;42.682;23.332;2023-05-09T05:24:44;95393.53;;;12.64;100.00
33155;BME280;19511;42.682;23.332;2023-05-09T05:27:09;95486.06;;;13.12;100.00
33155;BME280;19511;42.682;23.332;2023-05-09T05:29:35;95485.09;;;12.95;100.00
33155;BME280;19511;42.682;23.332;2023-05-09T05:32:00;95404.03;;;12.49;100.00
33155;BME280;19511;42.682;23.332;2023-05-09T05:34:29;95496.91;;;13.03;100.00
33155;BME280;19511;42.682;23.332;2023-05-09T05:36:54;95497.53;;;13.14;100.00
33155;BME280;19511;42.682;23.332;2023-05-09T05:39:20;95474.00;;;12.95;100.00
33155;BME280;19511;42.682;23.332;2023-05-09T05:41:45;95493.91;;;13.17;100.00
33155;BME280;19511;42.682;23.332;2023-05-09T05:44:13;95488.25;;;12.97;100.00
33155;BME280;19511;42.682;23.332;2023-05-09T05:46:42;95500.41;;;13.34;100.00
33155;BME280;19511;42.682;23.332;2023-05-09T05:49:07;95509.88;;;13.41;100.00
33155;BME280;19511;42.682;23.332;2023-05-09T05:51:33;95496.72;;;13.45;100.00
33155;BME280;19511;42.682;23.332;2023-05-09T05:53:58;95494.78;;;13.42;100.00
33155;BME280;19511;42.682;23.332;2023-05-09T05:56:24;95506.59;;;13.46;100.00
33155;BME280;19511;42.682;23.332;2023-05-09T05:58:50;95491.16;;;13.45;100.00
33155;BME280;19511;42.682;23.332;2023-05-09T06:01:15;95483.72;;;13.38;100.00
33155;BME280;19511;42.682;23.332;2023-05-09T06:03:41;95483.59;;;13.45;100.00
33155;BME280;19511;42.682;23.332;2023-05-09T06:06:06;95487.00;;;13.57;100.00
33155;BME280;19511;42.682;23.332;2023-05-09T06:08:32;95502.91;;;13.80;100.00
33155;BME280;19511;42.682;23.332;2023-05-09T06:10:59;95497.94;;;13.91;100.00
33155;BME280;19511;42.682;23.332;2023-05-09T06:13:28;95475.28;;;13.69;100.00
33155;BME280;19511;42.682;23.332;2023-05-09T06:15:54;95480.66;;;13.80;100.00
33155;BME280;19511;42.682;23.332;2023-05-09T06:18:21;95405.81;;;13.45;100.00
33155;BME280;19511;42.682;23.332;2023-05-09T06:20:50;95507.97;;;14.09;100.00
33155;BME280;19511;42.682;23.332;2023-05-09T06:23:16;95495.66;;;13.86;100.00
33155;BME280;19511;42.682;23.332;2023-05-09T06:25:46;95449.00;;;13.50;100.00
33155;BME280;19511;42.682;23.332;2023-05-09T06:28:11;95493.72;;;13.59;100.00
33155;BME280;19511;42.682;23.332;2023-05-09T06:30:37;95498.53;;;13.55;100.00
33155;BME280;19511;42.682;23.332;2023-05-09T06:33:02;95406.78;;;12.80;100.00
33155;BME280;19511;42.682;23.332;2023-05-09T06:35:28;95390.66;;;12.71;100.00
33155;BME280;19511;42.682;23.332;2023-05-09T06:37:56;95508.31;;;13.39;100.00
33155;BME280;19511;42.682;23.332;2023-05-09T06:40:22;95495.50;;;13.46;100.00
33155;BME280;19511;42.682;23.332;2023-05-09T06:42:47;95503.03;;;13.73;100.00
33155;BME280;19511;42.682;23.332;2023-05-09T06:45:12;95488.44;;;13.65;100.00
33155;BME280;19511;42.682;23.332;2023-05-09T06:47:38;95444.53;;;13.56;100.00
33155;BME280;19511;42.682;23.332;2023-05-09T06:50:04;95488.28;;;13.99;100.00
33155;BME280;19511;42.682;23.332;2023-05-09T06:52:29;95500.78;;;14.11;100.00
33155;BME280;19511;42.682;23.332;2023-05-09T06:54:55;95419.75;;;13.65;100.00
33155;BME280;19511;42.682;23.332;2023-05-09T06:57:20;95497.31;;;14.27;100.00
33155;BME280;19511;42.682;23.332;2023-05-09T06:59:46;95426.34;;;13.75;100.00
33155;BME280;19511;42.682;23.332;2023-05-09T07:02:11;95494.56;;;14.03;100.00
33155;BME280;19511;42.682;23.332;2023-05-09T07:04:37;95502.97;;;14.00;100.00
33155;BME280;19511;42.682;23.332;2023-05-09T07:07:02;95491.06;;;13.99;100.00
33155;BME280;19511;42.682;23.332;2023-05-09T07:09:28;95490.84;;;14.10;100.00
33155;BME280;19511;42.682;23.332;2023-05-09T07:11:54;95407.31;;;13.50;100.00
33155;BME280;19511;42.682;23.332;2023-05-09T07:14:19;95487.88;;;14.21;100.00
33155;BME280;19511;42.682;23.332;2023-05-09T07:16:45;95486.19;;;14.27;100.00
33155;BME280;19511;42.682;23.332;2023-05-09T07:19:14;95471.84;;;14.29;100.00
33155;BME280;19511;42.682;23.332;2023-05-09T07:21:39;95493.31;;;14.28;100.00
33155;BME280;19511;42.682;23.332;2023-05-09T07:24:05;95416.66;;;13.60;100.00
33155;BME280;19511;42.682;23.332;2023-05-09T07:26:30;95486.00;;;13.94;100.00
33155;BME280;19511;42.682;23.332;2023-05-09T07:28:56;95463.97;;;13.80;100.00
33155;BME280;19511;42.682;23.332;2023-05-09T07:31:21;95493.03;;;14.23;100.00
33155;BME280;19511;42.682;23.332;2023-05-09T07:33:47;95502.59;;;14.42;100.00
33155;BME280;19511;42.682;23.332;2023-05-09T07:36:12;95494.69;;;14.40;100.00
33155;BME280;19511;42.682;23.332;2023-05-09T07:38:40;95411.16;;;13.80;100.00
33155;BME280;19511;42.682;23.332;2023-05-09T07:41:06;95489.97;;;14.37;100.00
33155;BME280;19511;42.682;23.332;2023-05-09T07:43:31;95501.16;;;14.33;100.00
33155;BME280;19511;42.682;23.332;2023-05-09T07:45:57;95495.16;;;14.15;100.00
33155;BME280;19511;42.682;23.332;2023-05-09T07:48:22;95503.19;;;14.09;100.00
33155;BME280;19511;42.682;23.332;2023-05-09T07:50:48;95427.72;;;13.63;100.00
33155;BME280;19511;42.682;23.332;2023-05-09T07:53:17;95492.00;;;14.13;100.00
33155;BME280;19511;42.682;23.332;2023-05-09T07:55:46;95499.81;;;14.42;100.00
33155;BME280;19511;42.682;23.332;2023-05-09T07:58:19;95493.69;;;14.50;100.00
33155;BME280;19511;42.682;23.332;2023-05-09T08:00:45;95416.63;;;14.07;100.00
33155;BME280;19511;42.682;23.332;2023-05-09T08:03:10;95479.13;;;14.43;100.00
33155;BME280;19511;42.682;23.332;2023-05-09T08:05:35;95482.53;;;14.30;100.00
33155;BME280;19511;42.682;23.332;2023-05-09T08:08:01;95399.88;;;13.67;100.00
33155;BME280;19511;42.682;23.332;2023-05-09T08:10:26;95480.03;;;14.16;100.00
33155;BME280;19511;42.682;23.332;2023-05-09T08:12:55;95473.59;;;14.19;100.00
33155;BME280;19511;42.682;23.332;2023-05-09T08:15:20;95487.31;;;14.50;100.00
33155;BME280;19511;42.682;23.332;2023-05-09T08:17:46;95489.13;;;14.40;100.00
33155;BME280;19511;42.682;23.332;2023-05-09T08:20:11;95492.13;;;14.49;100.00
33155;BME280;19511;42.682;23.332;2023-05-09T08:22:38;95492.75;;;14.57;100.00
33155;BME280;19511;42.682;23.332;2023-05-09T08:25:04;95497.31;;;14.47;100.00
33155;BME280;19511;42.682;23.332;2023-05-09T08:27:30;95489.53;;;14.59;100.00
33155;BME280;19511;42.682;23.332;2023-05-09T08:29:55;95402.56;;;14.14;100.00
33155;BME280;19511;42.682;23.332;2023-05-09T08:32:20;95466.06;;;14.80;100.00
33155;BME280;19511;42.682;23.332;2023-05-09T08:34:46;95482.56;;;14.91;100.00
33155;BME280;19511;42.682;23.332;2023-05-09T08:37:11;95482.19;;;14.89;100.00
33155;BME280;19511;42.682;23.332;2023-05-09T08:39:37;95424.81;;;14.54;100.00
33155;BME280;19511;42.682;23.332;2023-05-09T08:42:02;95488.00;;;15.14;100.00
33155;BME280;19511;42.682;23.332;2023-05-09T08:44:29;95499.50;;;15.16;100.00
33155;BME280;19511;42.682;23.332;2023-05-09T08:46:58;95470.16;;;15.12;100.00
33155;BME280;19511;42.682;23.332;2023-05-09T08:49:25;95481.09;;;15.02;100.00
33155;BME280;19511;42.682;23.332;2023-05-09T08:51:56;95481.16;;;15.19;100.00
33155;BME280;19511;42.682;23.332;2023-05-09T08:54:22;95479.72;;;15.11;100.00
33155;BME280;19511;42.682;23.332;2023-05-09T08:56:49;95375.59;;;14.31;100.00
33155;BME280;19511;42.682;23.332;2023-05-09T08:59:16;95396.50;;;14.19;100.00
33155;BME280;19511;42.682;23.332;2023-05-09T09:01:46;95368.13;;;13.88;100.00
33155;BME280;19511;42.682;23.332;2023-05-09T09:04:16;95471.50;;;14.47;100.00
33155;BME280;19511;42.682;23.332;2023-05-09T09:06:47;95470.28;;;14.28;100.00
33155;BME280;19511;42.682;23.332;2023-05-09T09:09:18;95463.94;;;14.27;100.00
33155;BME280;19511;42.682;23.332;2023-05-09T09:11:44;95487.53;;;14.19;100.00
33155;BME280;19511;42.682;23.332;2023-05-09T09:14:14;95437.53;;;13.71;100.00
33155;BME280;19511;42.682;23.332;2023-05-09T09:16:46;95476.44;;;13.71;100.00
33155;BME280;19511;42.682;23.332;2023-05-09T09:19:16;95482.34;;;13.74;100.00
33155;BME280;19511;42.682;23.332;2023-05-09T09:21:52;95482.06;;;13.68;100.00
33155;BME280;19511;42.682;23.332;2023-05-09T09:24:23;95486.59;;;13.82;100.00
33155;BME280;19511;42.682;23.332;2023-05-09T09:26:50;95333.47;;;13.01;100.00
33155;BME280;19511;42.682;23.332;2023-05-09T09:29:16;95481.47;;;14.24;100.00
33155;BME280;19511;42.682;23.332;2023-05-09T09:31:44;95486.09;;;14.31;100.00
33155;BME280;19511;42.682;23.332;2023-05-09T09:34:20;95471.34;;;14.54;100.00
33155;BME280;19511;42.682;23.332;2023-05-09T09:36:46;95403.94;;;14.26;100.00
33155;BME280;19511;42.682;23.332;2023-05-09T09:39:23;95483.16;;;14.82;100.00
33155;BME280;19511;42.682;23.332;2023-05-09T09:41:49;95474.63;;;14.89;100.00
33155;BME280;19511;42.682;23.332;2023-05-09T09:44:23;95485.00;;;15.42;100.00
33155;BME280;19511;42.682;23.332;2023-05-09T09:46:53;95481.69;;;15.47;100.00
33155;BME280;19511;42.682;23.332;2023-05-09T09:49:24;95478.19;;;15.26;100.00
33155;BME280;19511;42.682;23.332;2023-05-09T09:54:20;95397.84;;;14.31;100.00
33155;BME280;19511;42.682;23.332;2023-05-09T09:56:50;95396.78;;;14.45;100.00
33155;BME280;19511;42.682;23.332;2023-05-09T09:59:24;95406.34;;;14.64;100.00
33155;BME280;19511;42.682;23.332;2023-05-09T10:02:00;95480.19;;;14.89;100.00
33155;BME280;19511;42.682;23.332;2023-05-09T10:04:30;95482.91;;;14.93;100.00
33155;BME280;19511;42.682;23.332;2023-05-09T10:06:58;95480.50;;;14.75;100.00
33155;BME280;19511;42.682;23.332;2023-05-09T10:09:25;95477.66;;;14.78;100.00
33155;BME280;19511;42.682;23.332;2023-05-09T10:11:51;95469.72;;;14.77;100.00
33155;BME280;19511;42.682;23.332;2023-05-09T10:14:19;95481.91;;;14.83;100.00
33155;BME280;19511;42.682;23.332;2023-05-09T10:16:47;95471.50;;;14.87;100.00
33155;BME280;19511;42.682;23.332;2023-05-09T10:19:18;95437.78;;;14.61;100.00
33155;BME280;19511;42.682;23.332;2023-05-09T10:21:57;95406.06;;;14.39;100.00
33155;BME280;19511;42.682;23.332;2023-05-09T10:24:31;95410.31;;;14.43;100.00
33155;BME280;19511;42.682;23.332;2023-05-09T10:27:03;95450.78;;;14.88;100.00
33155;BME280;19511;42.682;23.332;2023-05-09T10:29:34;95381.16;;;14.31;100.00
33155;BME280;19511;42.682;23.332;2023-05-09T10:32:05;95467.81;;;15.10;100.00
33155;BME280;19511;42.682;23.332;2023-05-09T10:34:38;95379.94;;;14.52;100.00
33155;BME280;19511;42.682;23.332;2023-05-09T10:37:05;95388.47;;;14.62;100.00
33155;BME280;19511;42.682;23.332;2023-05-09T10:39:32;95463.56;;;15.39;100.00
33155;BME280;19511;42.682;23.332;2023-05-09T10:41:58;95471.47;;;15.07;100.00
33155;BME280;19511;42.682;23.332;2023-05-09T10:44:25;95448.91;;;15.18;100.00
33155;BME280;19511;42.682;23.332;2023-05-09T10:46:51;95466.13;;;15.49;100.00
33155;BME280;19511;42.682;23.332;2023-05-09T10:49:22;95462.19;;;15.47;100.00
33155;BME280;19511;42.682;23.332;2023-05-09T10:51:50;95470.72;;;15.40;100.00
33155;BME280;19511;42.682;23.332;2023-05-09T10:54:28;95462.28;;;15.43;100.00
33155;BME280;19511;42.682;23.332;2023-05-09T10:56:56;95378.19;;;14.95;100.00
33155;BME280;19511;42.682;23.332;2023-05-09T11:01:57;95467.31;;;15.65;100.00
33155;BME280;19511;42.682;23.332;2023-05-09T11:04:27;95463.16;;;15.57;100.00
33155;BME280;19511;42.682;23.332;2023-05-09T11:06:53;95464.44;;;15.52;100.00
33155;BME280;19511;42.682;23.332;2023-05-09T11:09:29;95470.72;;;15.56;100.00
33155;BME280;19511;42.682;23.332;2023-05-09T11:14:49;95395.94;;;14.85;100.00
33155;BME280;19511;42.682;23.332;2023-05-09T11:24:37;95384.94;;;14.41;100.00
33155;BME280;19511;42.682;23.332;2023-05-09T11:27:13;95468.44;;;15.34;100.00
33155;BME280;19511;42.682;23.332;2023-05-09T11:29:43;95471.06;;;15.42;100.00
33155;BME280;19511;42.682;23.332;2023-05-09T11:32:12;95454.59;;;15.31;100.00
33155;BME280;19511;42.682;23.332;2023-05-09T11:34:42;95456.94;;;15.32;100.00
33155;BME280;19511;42.682;23.332;2023-05-09T11:37:15;95465.66;;;15.34;100.00
33155;BME280;19511;42.682;23.332;2023-05-09T11:39:59;95465.03;;;15.27;100.00
33155;BME280;19511;42.682;23.332;2023-05-09T11:42:29;95470.19;;;15.45;100.00
33155;BME280;19511;42.682;23.332;2023-05-09T11:44:56;95477.47;;;15.22;100.00
33155;BME280;19511;42.682;23.332;2023-05-09T11:47:22;95466.78;;;15.37;100.00
33155;BME280;19511;42.682;23.332;2023-05-09T11:49:48;95487.44;;;15.40;100.00
33155;BME280;19511;42.682;23.332;2023-05-09T11:52:15;95467.56;;;15.21;100.00
33155;BME280;19511;42.682;23.332;2023-05-09T11:54:48;95472.88;;;15.32;100.00
33155;BME280;19511;42.682;23.332;2023-05-09T11:57:15;95464.69;;;15.25;100.00
33155;BME280;19511;42.682;23.332;2023-05-09T11:59:43;95456.00;;;15.39;100.00
33155;BME280;19511;42.682;23.332;2023-05-09T12:02:09;95464.81;;;15.38;100.00
33155;BME280;19511;42.682;23.332;2023-05-09T12:04:35;95460.09;;;14.98;100.00
33155;BME280;19511;42.682;23.332;2023-05-09T12:07:01;95397.13;;;14.67;100.00
33155;BME280;19511;42.682;23.332;2023-05-09T12:09:31;95381.31;;;14.24;100.00
33155;BME280;19511;42.682;23.332;2023-05-09T12:12:00;95466.78;;;14.84;100.00
33155;BME280;19511;42.682;23.332;2023-05-09T12:14:29;95464.81;;;14.64;100.00
33155;BME280;19511;42.682;23.332;2023-05-09T12:16:54;95384.72;;;14.12;100.00
33155;BME280;19511;42.682;23.332;2023-05-09T12:19:22;95467.59;;;14.64;100.00
33155;BME280;19511;42.682;23.332;2023-05-09T12:21:57;95468.06;;;14.59;100.00
33155;BME280;19511;42.682;23.332;2023-05-09T12:24:27;95480.78;;;14.60;100.00
33155;BME280;19511;42.682;23.332;2023-05-09T12:26:54;95487.59;;;14.35;100.00
33155;BME280;19511;42.682;23.332;2023-05-09T12:29:24;95481.41;;;14.28;100.00
33155;BME280;19511;42.682;23.332;2023-05-09T12:31:52;95472.59;;;14.09;100.00
33155;BME280;19511;42.682;23.332;2023-05-09T12:34:21;95466.44;;;13.98;100.00
33155;BME280;19511;42.682;23.332;2023-05-09T12:36:52;95453.81;;;13.93;100.00
33155;BME280;19511;42.682;23.332;2023-05-09T12:39:19;95489.00;;;13.80;100.00
33155;BME280;19511;42.682;23.332;2023-05-09T12:41:49;95476.75;;;13.53;100.00
33155;BME280;19511;42.682;23.332;2023-05-09T12:44:24;95482.69;;;13.52;100.00
33155;BME280;19511;42.682;23.332;2023-05-09T12:49:27;95470.91;;;13.17;100.00
33155;BME280;19511;42.682;23.332;2023-05-09T12:51:56;95482.13;;;13.10;100.00
33155;BME280;19511;42.682;23.332;2023-05-09T12:54:28;95471.00;;;13.10;100.00
33155;BME280;19511;42.682;23.332;2023-05-09T12:56:58;95376.19;;;12.56;100.00
33155;BME280;19511;42.682;23.332;2023-05-09T12:59:28;95464.75;;;13.29;100.00
33155;BME280;19511;42.682;23.332;2023-05-09T13:01:59;95459.59;;;13.04;100.00
33155;BME280;19511;42.682;23.332;2023-05-09T13:04:29;95466.31;;;12.76;100.00
33155;BME280;19511;42.682;23.332;2023-05-09T13:06:56;95369.50;;;12.23;100.00
33155;BME280;19511;42.682;23.332;2023-05-09T13:09:28;95467.59;;;12.98;100.00
33155;BME280;19511;42.682;23.332;2023-05-09T13:11:54;95452.94;;;12.98;100.00